sensor_id;sensor_type;location;lat;lon;timestamp;P1;durP1;ratioP1;P2;durP2;ratioP2
50631;SDS011;49583;45.590;-122.498;2022-12-07T00:01:12;29.00;;;19.50;;
50631;SDS011;49583;45.590;-122.498;2022-12-07T00:03:28;29.90;;;18.30;;
50631;SDS011;49583;45.590;-122.498;2022-12-07T00:05:42;32.70;;;20.20;;
50631;SDS011;49583;45.590;-122.498;2022-12-07T00:07:55;33.00;;;19.50;;
50631;SDS011;49583;45.590;-122.498;2022-12-07T00:10:09;27.00;;;18.80;;
50631;SDS011;49583;45.590;-122.498;2022-12-07T00:12:23;32.40;;;19.40;;
50631;SDS011;49583;45.590;-122.498;2022-12-07T00:14:36;29.10;;;19.80;;
50631;SDS011;49583;45.590;-122.498;2022-12-07T00:16:51;28.40;;;19.20;;
50631;SDS011;49583;45.590;-122.498;2022-12-07T00:19:05;27.40;;;16.70;;
50631;SDS011;49583;45.590;-122.498;2022-12-07T00:21:20;31.70;;;18.50;;
50631;SDS011;49583;45.590;-122.498;2022-12-07T00:23:35;30.90;;;17.50;;
50631;SDS011;49583;45.590;-122.498;2022-12-07T00:25:48;31.20;;;19.40;;
50631;SDS011;49583;45.590;-122.498;2022-12-07T00:28:02;27.20;;;18.20;;
50631;SDS011;49583;45.590;-122.498;2022-12-07T00:30:18;33.70;;;19.60;;
50631;SDS011;49583;45.590;-122.498;2022-12-07T00:32:31;30.90;;;18.40;;
50631;SDS011;49583;45.590;-122.498;2022-12-07T00:34:45;31.40;;;19.50;;
50631;SDS011;49583;45.590;-122.498;2022-12-07T00:36:58;27.60;;;17.70;;
50631;SDS011;49583;45.590;-122.498;2022-12-07T00:39:11;28.00;;;18.70;;
50631;SDS011;49583;45.590;-122.498;2022-12-07T00:41:26;27.30;;;18.10;;
50631;SDS011;49583;45.590;-122.498;2022-12-07T00:43:40;33.80;;;19.00;;
50631;SDS011;49583;45.590;-122.498;2022-12-07T00:45:55;25.40;;;17.90;;
50631;SDS011;49583;45.590;-122.498;2022-12-07T00:48:08;27.60;;;17.40;;
50631;SDS011;49583;45.590;-122.498;2022-12-07T00:50:22;30.00;;;18.20;;
50631;SDS011;49583;45.590;-122.498;2022-12-07T00:52:36;31.50;;;18.00;;
50631;SDS011;49583;45.590;-122.498;2022-12-07T00:54:48;28.30;;;17.70;;
50631;SDS011;49583;45.590;-122.498;2022-12-07T00:57:02;30.00;;;18.40;;
50631;SDS011;49583;45.590;-122.498;2022-12-07T00:59:15;31.70;;;19.90;;
50631;SDS011;49583;45.590;-122.498;2022-12-07T01:01:30;35.50;;;20.50;;
50631;SDS011;49583;45.590;-122.498;2022-12-07T01:03:45;36.30;;;20.90;;
50631;SDS011;49583;45.590;-122.498;2022-12-07T01:05:58;34.70;;;18.90;;
50631;SDS011;49583;45.590;-122.498;2022-12-07T01:08:12;29.60;;;18.00;;
50631;SDS011;49583;45.590;-122.498;2022-12-07T01:10:25;25.90;;;18.00;;
50631;SDS011;49583;45.590;-122.498;2022-12-07T01:12:39;26.70;;;18.10;;
50631;SDS011;49583;45.590;-122.498;2022-12-07T01:14:52;30.20;;;18.30;;
50631;SDS011;49583;45.590;-122.498;2022-12-07T01:17:06;31.50;;;17.90;;
50631;SDS011;49583;45.590;-122.498;2022-12-07T01:19:19;27.80;;;17.70;;
50631;SDS011;49583;45.590;-122.498;2022-12-07T01:21:34;29.00;;;17.70;;
50631;SDS011;49583;45.590;-122.498;2022-12-07T01:23:48;30.70;;;17.80;;
50631;SDS011;49583;45.590;-122.498;2022-12-07T01:26:02;31.30;;;18.80;;
50631;SDS011;49583;45.590;-122.498;2022-12-07T01:28:17;28.70;;;17.50;;
50631;SDS011;49583;45.590;-122.498;2022-12-07T01:30:30;30.90;;;18.70;;
50631;SDS011;49583;45.590;-122.498;2022-12-07T01:32:43;36.10;;;18.50;;
50631;SDS011;49583;45.590;-122.498;2022-12-07T01:34:57;26.60;;;17.90;;
50631;SDS011;49583;45.590;-122.498;2022-12-07T01:37:11;32.20;;;19.40;;
50631;SDS011;49583;45.590;-122.498;2022-12-07T01:39:24;28.60;;;18.40;;
50631;SDS011;49583;45.590;-122.498;2022-12-07T01:41:38;28.80;;;18.70;;
50631;SDS011;49583;45.590;-122.498;2022-12-07T01:46:32;28.60;;;17.90;;
50631;SDS011;49583;45.590;-122.498;2022-12-07T01:48:45;27.80;;;19.10;;
50631;SDS011;49583;45.590;-122.498;2022-12-07T01:51:00;30.70;;;20.40;;
50631;SDS011;49583;45.590;-122.498;2022-12-07T01:53:16;37.20;;;19.30;;
50631;SDS011;49583;45.590;-122.498;2022-12-07T01:55:32;30.00;;;19.40;;
50631;SDS011;49583;45.590;-122.498;2022-12-07T01:57:47;31.40;;;19.60;;
50631;SDS011;49583;45.590;-122.498;2022-12-07T02:00:05;34.00;;;19.90;;
50631;SDS011;49583;45.590;-122.498;2022-12-07T02:02:22;28.00;;;18.20;;
50631;SDS011;49583;45.590;-122.498;2022-12-07T02:04:39;31.00;;;19.40;;
50631;SDS011;49583;45.590;-122.498;2022-12-07T02:06:53;36.10;;;20.10;;
50631;SDS011;49583;45.590;-122.498;2022-12-07T02:09:07;37.20;;;19.60;;
50631;SDS011;49583;45.590;-122.498;2022-12-07T02:11:21;36.40;;;20.30;;
50631;SDS011;49583;45.590;-122.498;2022-12-07T02:13:35;31.50;;;19.70;;
50631;SDS011;49583;45.590;-122.498;2022-12-07T02:15:56;38.70;;;20.40;;
50631;SDS011;49583;45.590;-122.498;2022-12-07T02:18:20;32.70;;;20.00;;
50631;SDS011;49583;45.590;-122.498;2022-12-07T02:20:42;37.70;;;20.50;;
50631;SDS011;49583;45.590;-122.498;2022-12-07T02:26:19;34.30;;;18.90;;
50631;SDS011;49583;45.590;-122.498;2022-12-07T02:31:32;32.00;;;19.70;;
50631;SDS011;49583;45.590;-122.498;2022-12-07T02:33:46;29.90;;;18.70;;
50631;SDS011;49583;45.590;-122.498;2022-12-07T02:36:06;34.60;;;20.30;;
50631;SDS011;49583;45.590;-122.498;2022-12-07T02:38:24;33.70;;;18.80;;
50631;SDS011;49583;45.590;-122.498;2022-12-07T02:40:41;33.70;;;19.60;;
50631;SDS011;49583;45.590;-122.498;2022-12-07T02:43:01;35.20;;;20.00;;
50631;SDS011;49583;45.590;-122.498;2022-12-07T02:45:17;33.10;;;19.70;;
50631;SDS011;49583;45.590;-122.498;2022-12-07T02:47:32;30.70;;;19.60;;
50631;SDS011;49583;45.590;-122.498;2022-12-07T02:49:47;30.50;;;18.10;;
50631;SDS011;49583;45.590;-122.498;2022-12-07T02:52:02;34.70;;;19.00;;
50631;SDS011;49583;45.590;-122.498;2022-12-07T02:54:17;34.40;;;19.60;;
50631;SDS011;49583;45.590;-122.498;2022-12-07T02:56:34;32.30;;;19.40;;
50631;SDS011;49583;45.590;-122.498;2022-12-07T02:58:58;32.50;;;19.40;;
50631;SDS011;49583;45.590;-122.498;2022-12-07T03:01:25;31.10;;;19.70;;
50631;SDS011;49583;45.590;-122.498;2022-12-07T03:03:46;30.40;;;19.90;;
50631;SDS011;49583;45.590;-122.498;2022-12-07T03:06:13;31.60;;;16.70;;
50631;SDS011;49583;45.590;-122.498;2022-12-07T03:08:38;30.50;;;18.40;;
50631;SDS011;49583;45.590;-122.498;2022-12-07T03:10:59;31.00;;;17.70;;
50631;SDS011;49583;45.590;-122.498;2022-12-07T03:13:16;25.20;;;18.30;;
50631;SDS011;49583;45.590;-122.498;2022-12-07T03:15:35;32.80;;;19.30;;
50631;SDS011;49583;45.590;-122.498;2022-12-07T03:17:57;29.80;;;19.10;;
50631;SDS011;49583;45.590;-122.498;2022-12-07T03:20:14;29.80;;;18.30;;
50631;SDS011;49583;45.590;-122.498;2022-12-07T03:22:31;33.50;;;18.40;;
50631;SDS011;49583;45.590;-122.498;2022-12-07T03:24:49;28.90;;;17.20;;
50631;SDS011;49583;45.590;-122.498;2022-12-07T03:27:06;32.20;;;19.60;;
50631;SDS011;49583;45.590;-122.498;2022-12-07T03:29:26;35.00;;;19.30;;
50631;SDS011;49583;45.590;-122.498;2022-12-07T03:31:47;32.80;;;19.00;;
50631;SDS011;49583;45.590;-122.498;2022-12-07T03:34:06;33.20;;;18.50;;
50631;SDS011;49583;45.590;-122.498;2022-12-07T03:36:25;27.50;;;17.70;;
50631;SDS011;49583;45.590;-122.498;2022-12-07T03:38:47;36.40;;;18.50;;
50631;SDS011;49583;45.590;-122.498;2022-12-07T03:41:05;28.10;;;17.80;;
50631;SDS011;49583;45.590;-122.498;2022-12-07T03:43:21;28.50;;;17.40;;
50631;SDS011;49583;45.590;-122.498;2022-12-07T03:45:37;36.10;;;16.60;;
50631;SDS011;49583;45.590;-122.498;2022-12-07T03:47:56;26.70;;;16.90;;
50631;SDS011;49583;45.590;-122.498;2022-12-07T03:50:19;26.20;;;15.40;;
50631;SDS011;49583;45.590;-122.498;2022-12-07T03:52:39;25.20;;;16.00;;
50631;SDS011;49583;45.590;-122.498;2022-12-07T03:54:56;24.20;;;16.80;;
50631;SDS011;49583;45.590;-122.498;2022-12-07T03:57:15;21.30;;;15.40;;
50631;SDS011;49583;45.590;-122.498;2022-12-07T03:59:31;27.00;;;16.00;;
50631;SDS011;49583;45.590;-122.498;2022-12-07T04:01:51;26.10;;;16.30;;
50631;SDS011;49583;45.590;-122.498;2022-12-07T04:04:06;27.30;;;15.50;;
50631;SDS011;49583;45.590;-122.498;2022-12-07T04:06:20;24.10;;;14.70;;
50631;SDS011;49583;45.590;-122.498;2022-12-07T04:08:33;23.20;;;16.20;;
50631;SDS011;49583;45.590;-122.498;2022-12-07T04:10:46;27.90;;;16.20;;
50631;SDS011;49583;45.590;-122.498;2022-12-07T04:12:59;24.70;;;15.60;;
50631;SDS011;49583;45.590;-122.498;2022-12-07T04:15:13;20.90;;;14.70;;
50631;SDS011;49583;45.590;-122.498;2022-12-07T04:17:27;17.30;;;12.80;;
50631;SDS011;49583;45.590;-122.498;2022-12-07T04:19:41;26.40;;;14.90;;
50631;SDS011;49583;45.590;-122.498;2022-12-07T04:21:55;20.20;;;14.30;;
50631;SDS011;49583;45.590;-122.498;2022-12-07T04:24:09;27.80;;;15.50;;
50631;SDS011;49583;45.590;-122.498;2022-12-07T04:26:24;22.90;;;14.70;;
50631;SDS011;49583;45.590;-122.498;2022-12-07T04:28:38;24.60;;;15.30;;
50631;SDS011;49583;45.590;-122.498;2022-12-07T04:30:52;25.60;;;15.10;;
50631;SDS011;49583;45.590;-122.498;2022-12-07T04:33:06;25.90;;;15.00;;
50631;SDS011;49583;45.590;-122.498;2022-12-07T04:35:20;21.80;;;14.60;;
50631;SDS011;49583;45.590;-122.498;2022-12-07T04:37:34;22.90;;;12.60;;
50631;SDS011;49583;45.590;-122.498;2022-12-07T04:39:48;24.90;;;14.80;;
50631;SDS011;49583;45.590;-122.498;2022-12-07T04:42:01;22.00;;;14.40;;
50631;SDS011;49583;45.590;-122.498;2022-12-07T04:44:15;22.60;;;15.20;;
50631;SDS011;49583;45.590;-122.498;2022-12-07T04:46:29;22.00;;;15.70;;
50631;SDS011;49583;45.590;-122.498;2022-12-07T04:48:43;21.60;;;14.70;;
50631;SDS011;49583;45.590;-122.498;2022-12-07T04:50:57;22.30;;;13.30;;
50631;SDS011;49583;45.590;-122.498;2022-12-07T04:53:10;19.60;;;13.30;;
50631;SDS011;49583;45.590;-122.498;2022-12-07T04:55:24;24.20;;;14.20;;
50631;SDS011;49583;45.590;-122.498;2022-12-07T04:57:38;24.90;;;15.20;;
50631;SDS011;49583;45.590;-122.498;2022-12-07T04:59:53;18.60;;;13.30;;
50631;SDS011;49583;45.590;-122.498;2022-12-07T05:02:07;22.60;;;14.70;;
50631;SDS011;49583;45.590;-122.498;2022-12-07T05:04:21;22.80;;;13.90;;
50631;SDS011;49583;45.590;-122.498;2022-12-07T05:06:34;19.20;;;14.20;;
50631;SDS011;49583;45.590;-122.498;2022-12-07T05:08:48;20.00;;;12.70;;
50631;SDS011;49583;45.590;-122.498;2022-12-07T05:11:01;21.90;;;14.30;;
50631;SDS011;49583;45.590;-122.498;2022-12-07T05:13:15;25.00;;;14.30;;
50631;SDS011;49583;45.590;-122.498;2022-12-07T05:15:29;21.40;;;14.10;;
50631;SDS011;49583;45.590;-122.498;2022-12-07T05:17:42;20.80;;;14.70;;
50631;SDS011;49583;45.590;-122.498;2022-12-07T05:19:55;23.70;;;14.60;;
50631;SDS011;49583;45.590;-122.498;2022-12-07T05:22:10;21.80;;;14.80;;
50631;SDS011;49583;45.590;-122.498;2022-12-07T05:24:23;23.20;;;15.40;;
50631;SDS011;49583;45.590;-122.498;2022-12-07T05:26:37;23.80;;;14.70;;
50631;SDS011;49583;45.590;-122.498;2022-12-07T05:28:52;21.40;;;14.10;;
50631;SDS011;49583;45.590;-122.498;2022-12-07T05:31:07;22.10;;;15.40;;
50631;SDS011;49583;45.590;-122.498;2022-12-07T05:33:20;21.50;;;15.70;;
50631;SDS011;49583;45.590;-122.498;2022-12-07T05:35:33;20.50;;;14.80;;
50631;SDS011;49583;45.590;-122.498;2022-12-07T05:37:48;26.50;;;16.60;;
50631;SDS011;49583;45.590;-122.498;2022-12-07T05:40:02;27.30;;;15.70;;
50631;SDS011;49583;45.590;-122.498;2022-12-07T05:42:17;24.40;;;14.90;;
50631;SDS011;49583;45.590;-122.498;2022-12-07T05:44:31;23.80;;;14.80;;
50631;SDS011;49583;45.590;-122.498;2022-12-07T05:46:44;23.00;;;15.00;;
50631;SDS011;49583;45.590;-122.498;2022-12-07T05:48:58;22.40;;;14.90;;
50631;SDS011;49583;45.590;-122.498;2022-12-07T05:51:12;21.40;;;13.80;;
50631;SDS011;49583;45.590;-122.498;2022-12-07T05:53:27;19.90;;;13.20;;
50631;SDS011;49583;45.590;-122.498;2022-12-07T05:55:40;19.50;;;13.50;;
50631;SDS011;49583;45.590;-122.498;2022-12-07T05:57:54;22.30;;;14.60;;
50631;SDS011;49583;45.590;-122.498;2022-12-07T06:00:21;21.10;;;13.50;;
50631;SDS011;49583;45.590;-122.498;2022-12-07T06:02:36;16.90;;;13.20;;
50631;SDS011;49583;45.590;-122.498;2022-12-07T06:04:49;16.40;;;13.10;;
50631;SDS011;49583;45.590;-122.498;2022-12-07T06:07:03;19.30;;;12.80;;
50631;SDS011;49583;45.590;-122.498;2022-12-07T06:09:17;19.00;;;12.20;;
50631;SDS011;49583;45.590;-122.498;2022-12-07T06:11:31;21.90;;;13.10;;
50631;SDS011;49583;45.590;-122.498;2022-12-07T06:14:02;20.60;;;12.90;;
50631;SDS011;49583;45.590;-122.498;2022-12-07T06:16:15;17.00;;;12.40;;
50631;SDS011;49583;45.590;-122.498;2022-12-07T06:18:29;16.80;;;12.60;;
50631;SDS011;49583;45.590;-122.498;2022-12-07T06:20:43;19.10;;;12.90;;
50631;SDS011;49583;45.590;-122.498;2022-12-07T06:22:58;20.40;;;13.30;;
50631;SDS011;49583;45.590;-122.498;2022-12-07T06:25:11;18.00;;;13.00;;
50631;SDS011;49583;45.590;-122.498;2022-12-07T06:27:25;20.00;;;12.80;;
50631;SDS011;49583;45.590;-122.498;2022-12-07T06:29:39;19.00;;;12.20;;
50631;SDS011;49583;45.590;-122.498;2022-12-07T06:31:53;17.10;;;12.20;;
50631;SDS011;49583;45.590;-122.498;2022-12-07T06:34:09;18.00;;;12.70;;
50631;SDS011;49583;45.590;-122.498;2022-12-07T06:36:24;20.10;;;13.50;;
50631;SDS011;49583;45.590;-122.498;2022-12-07T06:38:38;21.60;;;13.80;;
50631;SDS011;49583;45.590;-122.498;2022-12-07T06:40:52;18.10;;;13.60;;
50631;SDS011;49583;45.590;-122.498;2022-12-07T06:43:05;20.10;;;13.00;;
50631;SDS011;49583;45.590;-122.498;2022-12-07T06:45:18;18.30;;;12.80;;
50631;SDS011;49583;45.590;-122.498;2022-12-07T06:47:31;21.30;;;13.50;;
50631;SDS011;49583;45.590;-122.498;2022-12-07T06:49:49;17.60;;;13.10;;
50631;SDS011;49583;45.590;-122.498;2022-12-07T06:52:02;19.10;;;13.00;;
50631;SDS011;49583;45.590;-122.498;2022-12-07T06:54:18;20.20;;;13.90;;
50631;SDS011;49583;45.590;-122.498;2022-12-07T06:58:43;17.70;;;13.60;;
50631;SDS011;49583;45.590;-122.498;2022-12-07T07:00:56;20.10;;;13.30;;
50631;SDS011;49583;45.590;-122.498;2022-12-07T07:03:10;19.60;;;12.70;;
50631;SDS011;49583;45.590;-122.498;2022-12-07T07:05:25;19.50;;;13.40;;
50631;SDS011;49583;45.590;-122.498;2022-12-07T07:07:38;19.40;;;14.00;;
50631;SDS011;49583;45.590;-122.498;2022-12-07T07:10:12;22.00;;;14.10;;
50631;SDS011;49583;45.590;-122.498;2022-12-07T07:12:25;17.90;;;13.50;;
50631;SDS011;49583;45.590;-122.498;2022-12-07T07:14:38;22.30;;;13.70;;
50631;SDS011;49583;45.590;-122.498;2022-12-07T07:16:51;20.60;;;13.20;;
50631;SDS011;49583;45.590;-122.498;2022-12-07T07:19:05;20.10;;;13.30;;
50631;SDS011;49583;45.590;-122.498;2022-12-07T07:21:19;21.50;;;13.70;;
50631;SDS011;49583;45.590;-122.498;2022-12-07T07:23:33;20.90;;;13.90;;
50631;SDS011;49583;45.590;-122.498;2022-12-07T07:25:46;20.80;;;13.10;;
50631;SDS011;49583;45.590;-122.498;2022-12-07T07:28:00;19.30;;;14.10;;
50631;SDS011;49583;45.590;-122.498;2022-12-07T07:30:14;20.30;;;14.00;;
50631;SDS011;49583;45.590;-122.498;2022-12-07T07:32:29;20.70;;;13.20;;
50631;SDS011;49583;45.590;-122.498;2022-12-07T07:34:42;20.20;;;14.40;;
50631;SDS011;49583;45.590;-122.498;2022-12-07T07:36:57;22.00;;;13.90;;
50631;SDS011;49583;45.590;-122.498;2022-12-07T07:39:11;21.10;;;13.30;;
50631;SDS011;49583;45.590;-122.498;2022-12-07T07:41:26;17.00;;;13.10;;
50631;SDS011;49583;45.590;-122.498;2022-12-07T07:43:41;19.00;;;13.50;;
50631;SDS011;49583;45.590;-122.498;2022-12-07T07:45:54;20.00;;;13.40;;
50631;SDS011;49583;45.590;-122.498;2022-12-07T07:48:09;21.40;;;14.20;;
50631;SDS011;49583;45.590;-122.498;2022-12-07T07:50:22;19.10;;;14.50;;
50631;SDS011;49583;45.590;-122.498;2022-12-07T07:52:36;22.10;;;15.10;;
50631;SDS011;49583;45.590;-122.498;2022-12-07T07:54:50;26.30;;;16.30;;
50631;SDS011;49583;45.590;-122.498;2022-12-07T07:57:03;27.30;;;16.80;;
50631;SDS011;49583;45.590;-122.498;2022-12-07T07:59:16;22.40;;;16.30;;
50631;SDS011;49583;45.590;-122.498;2022-12-07T08:01:30;28.80;;;17.30;;
50631;SDS011;49583;45.590;-122.498;2022-12-07T08:03:44;22.20;;;16.10;;
50631;SDS011;49583;45.590;-122.498;2022-12-07T08:05:58;23.40;;;16.00;;
50631;SDS011;49583;45.590;-122.498;2022-12-07T08:08:13;26.50;;;16.00;;
50631;SDS011;49583;45.590;-122.498;2022-12-07T08:10:27;26.40;;;17.40;;
50631;SDS011;49583;45.590;-122.498;2022-12-07T08:12:42;27.60;;;18.10;;
50631;SDS011;49583;45.590;-122.498;2022-12-07T08:15:14;28.60;;;19.30;;
50631;SDS011;49583;45.590;-122.498;2022-12-07T08:17:28;25.50;;;17.50;;
50631;SDS011;49583;45.590;-122.498;2022-12-07T08:19:41;27.10;;;18.80;;
50631;SDS011;49583;45.590;-122.498;2022-12-07T08:21:55;25.30;;;17.90;;
50631;SDS011;49583;45.590;-122.498;2022-12-07T08:24:08;25.30;;;17.80;;
50631;SDS011;49583;45.590;-122.498;2022-12-07T08:26:21;24.90;;;16.70;;
50631;SDS011;49583;45.590;-122.498;2022-12-07T08:28:36;24.00;;;16.00;;
50631;SDS011;49583;45.590;-122.498;2022-12-07T08:30:50;24.30;;;16.80;;
50631;SDS011;49583;45.590;-122.498;2022-12-07T08:33:09;19.60;;;14.20;;
50631;SDS011;49583;45.590;-122.498;2022-12-07T08:35:24;20.90;;;14.00;;
50631;SDS011;49583;45.590;-122.498;2022-12-07T08:37:38;22.10;;;14.50;;
50631;SDS011;49583;45.590;-122.498;2022-12-07T08:39:53;16.90;;;13.10;;
50631;SDS011;49583;45.590;-122.498;2022-12-07T08:42:07;19.00;;;15.10;;
50631;SDS011;49583;45.590;-122.498;2022-12-07T08:44:21;21.70;;;14.60;;
50631;SDS011;49583;45.590;-122.498;2022-12-07T08:46:36;16.50;;;12.60;;
50631;SDS011;49583;45.590;-122.498;2022-12-07T08:48:53;19.00;;;14.20;;
50631;SDS011;49583;45.590;-122.498;2022-12-07T08:51:12;22.70;;;14.20;;
50631;SDS011;49583;45.590;-122.498;2022-12-07T08:53:26;18.90;;;13.70;;
50631;SDS011;49583;45.590;-122.498;2022-12-07T08:55:41;18.90;;;13.80;;
50631;SDS011;49583;45.590;-122.498;2022-12-07T08:57:55;20.90;;;15.30;;
50631;SDS011;49583;45.590;-122.498;2022-12-07T09:00:10;18.00;;;13.30;;
50631;SDS011;49583;45.590;-122.498;2022-12-07T09:02:24;20.10;;;13.60;;
50631;SDS011;49583;45.590;-122.498;2022-12-07T09:04:38;18.80;;;14.10;;
50631;SDS011;49583;45.590;-122.498;2022-12-07T09:06:52;22.00;;;14.80;;
50631;SDS011;49583;45.590;-122.498;2022-12-07T09:09:07;20.90;;;13.10;;
50631;SDS011;49583;45.590;-122.498;2022-12-07T09:11:22;23.10;;;14.20;;
50631;SDS011;49583;45.590;-122.498;2022-12-07T09:13:35;19.00;;;14.10;;
50631;SDS011;49583;45.590;-122.498;2022-12-07T09:15:49;22.10;;;13.30;;
50631;SDS011;49583;45.590;-122.498;2022-12-07T09:18:03;20.10;;;14.30;;
50631;SDS011;49583;45.590;-122.498;2022-12-07T09:20:16;19.00;;;13.50;;
50631;SDS011;49583;45.590;-122.498;2022-12-07T09:22:34;21.50;;;14.50;;
50631;SDS011;49583;45.590;-122.498;2022-12-07T09:24:48;22.30;;;14.40;;
50631;SDS011;49583;45.590;-122.498;2022-12-07T09:27:02;20.00;;;14.30;;
50631;SDS011;49583;45.590;-122.498;2022-12-07T09:29:15;16.70;;;13.30;;
50631;SDS011;49583;45.590;-122.498;2022-12-07T09:31:29;18.30;;;14.00;;
50631;SDS011;49583;45.590;-122.498;2022-12-07T09:33:45;20.30;;;13.70;;
50631;SDS011;49583;45.590;-122.498;2022-12-07T09:36:03;20.00;;;13.80;;
50631;SDS011;49583;45.590;-122.498;2022-12-07T09:38:17;21.30;;;15.30;;
50631;SDS011;49583;45.590;-122.498;2022-12-07T09:40:34;22.80;;;13.60;;
50631;SDS011;49583;45.590;-122.498;2022-12-07T09:42:49;20.20;;;14.60;;
50631;SDS011;49583;45.590;-122.498;2022-12-07T09:45:10;20.70;;;14.50;;
50631;SDS011;49583;45.590;-122.498;2022-12-07T09:47:27;21.00;;;14.70;;
50631;SDS011;49583;45.590;-122.498;2022-12-07T09:49:43;22.70;;;15.20;;
50631;SDS011;49583;45.590;-122.498;2022-12-07T09:52:03;20.20;;;14.40;;
50631;SDS011;49583;45.590;-122.498;2022-12-07T09:54:31;28.60;;;17.50;;
50631;SDS011;49583;45.590;-122.498;2022-12-07T09:56:50;25.70;;;15.70;;
50631;SDS011;49583;45.590;-122.498;2022-12-07T09:59:04;24.50;;;14.40;;
50631;SDS011;49583;45.590;-122.498;2022-12-07T10:01:23;22.40;;;14.70;;
50631;SDS011;49583;45.590;-122.498;2022-12-07T10:03:40;23.20;;;15.50;;
50631;SDS011;49583;45.590;-122.498;2022-12-07T10:06:00;18.90;;;15.20;;
50631;SDS011;49583;45.590;-122.498;2022-12-07T10:08:15;21.30;;;14.80;;
50631;SDS011;49583;45.590;-122.498;2022-12-07T10:10:31;21.80;;;15.00;;
50631;SDS011;49583;45.590;-122.498;2022-12-07T10:13:00;20.50;;;15.00;;
50631;SDS011;49583;45.590;-122.498;2022-12-07T10:15:15;20.80;;;14.10;;
50631;SDS011;49583;45.590;-122.498;2022-12-07T10:17:33;22.30;;;15.00;;
50631;SDS011;49583;45.590;-122.498;2022-12-07T10:19:49;16.60;;;12.50;;
50631;SDS011;49583;45.590;-122.498;2022-12-07T10:22:21;21.80;;;14.70;;
50631;SDS011;49583;45.590;-122.498;2022-12-07T10:24:40;21.10;;;13.30;;
50631;SDS011;49583;45.590;-122.498;2022-12-07T10:26:56;18.10;;;13.60;;
50631;SDS011;49583;45.590;-122.498;2022-12-07T10:29:16;16.50;;;11.90;;
50631;SDS011;49583;45.590;-122.498;2022-12-07T10:31:31;24.10;;;14.90;;
50631;SDS011;49583;45.590;-122.498;2022-12-07T10:33:52;20.50;;;14.20;;
50631;SDS011;49583;45.590;-122.498;2022-12-07T10:36:20;20.40;;;14.40;;
50631;SDS011;49583;45.590;-122.498;2022-12-07T10:38:35;19.70;;;14.20;;
50631;SDS011;49583;45.590;-122.498;2022-12-07T10:41:07;22.90;;;15.20;;
50631;SDS011;49583;45.590;-122.498;2022-12-07T10:43:20;17.40;;;12.80;;
50631;SDS011;49583;45.590;-122.498;2022-12-07T10:45:34;20.20;;;13.60;;
50631;SDS011;49583;45.590;-122.498;2022-12-07T10:48:11;19.50;;;13.00;;
50631;SDS011;49583;45.590;-122.498;2022-12-07T10:50:55;18.90;;;13.40;;
50631;SDS011;49583;45.590;-122.498;2022-12-07T10:53:34;16.50;;;11.50;;
50631;SDS011;49583;45.590;-122.498;2022-12-07T10:56:06;21.40;;;13.90;;
50631;SDS011;49583;45.590;-122.498;2022-12-07T10:58:43;20.30;;;13.90;;
50631;SDS011;49583;45.590;-122.498;2022-12-07T11:01:12;17.90;;;11.80;;
50631;SDS011;49583;45.590;-122.498;2022-12-07T11:03:36;17.20;;;14.00;;
50631;SDS011;49583;45.590;-122.498;2022-12-07T11:05:58;17.70;;;13.20;;
50631;SDS011;49583;45.590;-122.498;2022-12-07T11:08:21;20.10;;;12.60;;
50631;SDS011;49583;45.590;-122.498;2022-12-07T11:10:43;17.40;;;12.80;;
50631;SDS011;49583;45.590;-122.498;2022-12-07T11:13:09;20.80;;;13.20;;
50631;SDS011;49583;45.590;-122.498;2022-12-07T11:15:36;17.20;;;12.50;;
50631;SDS011;49583;45.590;-122.498;2022-12-07T11:18:01;16.00;;;12.00;;
50631;SDS011;49583;45.590;-122.498;2022-12-07T11:20:27;17.20;;;13.40;;
50631;SDS011;49583;45.590;-122.498;2022-12-07T11:22:48;18.60;;;13.70;;
50631;SDS011;49583;45.590;-122.498;2022-12-07T11:25:13;23.00;;;14.60;;
50631;SDS011;49583;45.590;-122.498;2022-12-07T11:27:36;20.30;;;15.60;;
50631;SDS011;49583;45.590;-122.498;2022-12-07T11:30:01;23.80;;;15.50;;
50631;SDS011;49583;45.590;-122.498;2022-12-07T11:32:26;26.10;;;17.10;;
50631;SDS011;49583;45.590;-122.498;2022-12-07T11:37:15;26.20;;;17.80;;
50631;SDS011;49583;45.590;-122.498;2022-12-07T11:39:33;29.00;;;18.60;;
50631;SDS011;49583;45.590;-122.498;2022-12-07T11:41:50;25.80;;;18.50;;
50631;SDS011;49583;45.590;-122.498;2022-12-07T11:44:22;28.30;;;19.30;;
50631;SDS011;49583;45.590;-122.498;2022-12-07T11:46:46;32.10;;;20.40;;
50631;SDS011;49583;45.590;-122.498;2022-12-07T11:49:04;35.70;;;20.30;;
50631;SDS011;49583;45.590;-122.498;2022-12-07T11:51:25;29.90;;;20.00;;
50631;SDS011;49583;45.590;-122.498;2022-12-07T11:53:41;34.90;;;19.70;;
50631;SDS011;49583;45.590;-122.498;2022-12-07T11:56:01;34.40;;;19.40;;
50631;SDS011;49583;45.590;-122.498;2022-12-07T11:58:26;30.20;;;18.90;;
50631;SDS011;49583;45.590;-122.498;2022-12-07T12:00:50;30.00;;;19.40;;
50631;SDS011;49583;45.590;-122.498;2022-12-07T12:03:13;34.40;;;18.00;;
50631;SDS011;49583;45.590;-122.498;2022-12-07T12:05:39;26.90;;;18.30;;
50631;SDS011;49583;45.590;-122.498;2022-12-07T12:07:52;30.10;;;17.80;;
50631;SDS011;49583;45.590;-122.498;2022-12-07T12:10:37;30.30;;;18.40;;
50631;SDS011;49583;45.590;-122.498;2022-12-07T12:13:08;30.00;;;19.10;;
50631;SDS011;49583;45.590;-122.498;2022-12-07T12:16:04;23.90;;;15.80;;
50631;SDS011;49583;45.590;-122.498;2022-12-07T12:18:48;22.00;;;15.90;;
50631;SDS011;49583;45.590;-122.498;2022-12-07T12:21:12;20.20;;;14.60;;
50631;SDS011;49583;45.590;-122.498;2022-12-07T12:23:29;20.20;;;15.80;;
50631;SDS011;49583;45.590;-122.498;2022-12-07T12:25:52;26.00;;;15.80;;
50631;SDS011;49583;45.590;-122.498;2022-12-07T12:28:16;23.80;;;15.00;;
50631;SDS011;49583;45.590;-122.498;2022-12-07T12:30:36;20.30;;;14.70;;
50631;SDS011;49583;45.590;-122.498;2022-12-07T12:32:51;19.60;;;15.00;;
50631;SDS011;49583;45.590;-122.498;2022-12-07T12:37:45;20.30;;;14.30;;
50631;SDS011;49583;45.590;-122.498;2022-12-07T12:43:02;23.90;;;15.80;;
50631;SDS011;49583;45.590;-122.498;2022-12-07T12:45:40;21.10;;;14.10;;
50631;SDS011;49583;45.590;-122.498;2022-12-07T12:47:55;17.80;;;14.10;;
50631;SDS011;49583;45.590;-122.498;2022-12-07T12:50:20;21.00;;;15.00;;
50631;SDS011;49583;45.590;-122.498;2022-12-07T12:55:14;21.00;;;14.80;;
50631;SDS011;49583;45.590;-122.498;2022-12-07T12:57:31;16.40;;;13.60;;
50631;SDS011;49583;45.590;-122.498;2022-12-07T12:59:45;19.50;;;13.40;;
50631;SDS011;49583;45.590;-122.498;2022-12-07T13:02:22;19.40;;;14.50;;
50631;SDS011;49583;45.590;-122.498;2022-12-07T13:10:11;19.60;;;14.80;;
50631;SDS011;49583;45.590;-122.498;2022-12-07T13:12:42;18.70;;;13.60;;
50631;SDS011;49583;45.590;-122.498;2022-12-07T13:15:23;18.00;;;14.10;;